createdAt,value
2018-01-15T00:01:04.480Z,1.90
2018-01-15T00:03:32.823Z,2.00
2018-01-15T00:06:01.111Z,2.00
2018-01-15T00:08:29.345Z,2.00
2018-01-15T00:10:59.126Z,1.90
2018-01-15T00:13:27.388Z,1.90
2018-01-15T00:15:55.642Z,2.00
2018-01-15T00:18:24.582Z,1.90
2018-01-15T00:20:53.650Z,2.00
2018-01-15T00:23:21.910Z,1.90
2018-01-15T00:25:50.918Z,1.90
2018-01-15T00:28:20.832Z,1.90
2018-01-15T00:30:49.103Z,1.90
2018-01-15T00:33:17.497Z,2.00
2018-01-15T00:35:45.725Z,2.00
2018-01-15T00:38:13.990Z,2.00
2018-01-15T00:40:43.154Z,2.00
2018-01-15T00:43:11.780Z,2.00
2018-01-15T00:45:40.011Z,2.00
2018-01-15T00:48:08.266Z,1.90
2018-01-15T00:50:37.280Z,2.00
2018-01-15T00:53:05.535Z,2.00
2018-01-15T00:55:33.794Z,2.00
2018-01-15T00:58:02.171Z,2.00
2018-01-15T01:00:31.189Z,2.10
2018-01-15T01:02:59.462Z,2.00
2018-01-15T01:05:28.540Z,2.10
2018-01-15T01:07:56.775Z,2.10
2018-01-15T01:10:25.671Z,2.10
2018-01-15T01:12:54.614Z,2.20
2018-01-15T01:15:23.615Z,2.20
2018-01-15T01:17:53.221Z,2.20
2018-01-15T01:20:21.632Z,2.30
2018-01-15T01:22:51.199Z,2.40
2018-01-15T01:25:20.317Z,2.30
2018-01-15T01:27:48.562Z,2.30
2018-01-15T01:30:17.812Z,2.30
2018-01-15T01:32:46.041Z,2.30
2018-01-15T01:35:14.288Z,2.30
2018-01-15T01:37:42.592Z,2.30
2018-01-15T01:40:10.785Z,2.40
2018-01-15T01:42:39.816Z,2.30
2018-01-15T01:45:08.087Z,2.30
2018-01-15T01:47:37.091Z,2.30
2018-01-15T01:50:05.850Z,2.30
2018-01-15T01:52:34.090Z,2.30
2018-01-15T01:55:02.342Z,2.30
2018-01-15T01:57:30.561Z,2.20
2018-01-15T01:59:59.614Z,2.20
2018-01-15T02:02:28.511Z,2.20
2018-01-15T02:04:56.774Z,2.10
2018-01-15T02:07:26.041Z,2.10
2018-01-15T02:09:54.410Z,2.10
2018-01-15T02:12:22.649Z,2.10
2018-01-15T02:14:50.941Z,2.10
2018-01-15T02:17:19.537Z,2.20
2018-01-15T02:19:47.740Z,2.20
2018-01-15T02:22:16.010Z,2.30
2018-01-15T02:24:45.052Z,2.40
2018-01-15T02:27:13.323Z,2.30
2018-01-15T02:29:41.554Z,2.30
2018-01-15T02:32:10.622Z,2.20
2018-01-15T02:34:39.066Z,2.20
2018-01-15T02:37:07.320Z,2.10
2018-01-15T02:39:36.336Z,1.90
2018-01-15T02:42:04.612Z,1.90
2018-01-15T02:44:32.849Z,1.80
2018-01-15T02:47:02.758Z,1.80
2018-01-15T02:49:31.610Z,1.70
2018-01-15T02:51:59.857Z,1.70
2018-01-15T02:54:28.133Z,1.60
2018-01-15T02:56:56.381Z,1.60
2018-01-15T02:59:25.389Z,1.60
2018-01-15T03:01:55.322Z,1.60
2018-01-15T03:04:23.632Z,1.60
2018-01-15T03:06:51.959Z,1.70
2018-01-15T03:09:20.157Z,1.70
2018-01-15T03:11:48.452Z,1.70
2018-01-15T03:14:16.698Z,1.60
2018-01-15T03:16:45.720Z,1.60
2018-01-15T03:19:13.976Z,1.60
2018-01-15T03:21:42.242Z,1.60
2018-01-15T03:24:11.268Z,1.60
2018-01-15T03:26:39.529Z,1.60
2018-01-15T03:29:08.509Z,1.60
2018-01-15T03:31:37.541Z,1.70
2018-01-15T03:34:05.801Z,1.70
2018-01-15T03:36:34.048Z,1.70
2018-01-15T03:39:03.089Z,1.70
2018-01-15T03:41:31.349Z,1.70
2018-01-15T03:43:59.693Z,1.70
2018-01-15T03:46:27.889Z,1.70
2018-01-15T03:48:56.893Z,1.70
2018-01-15T03:51:26.021Z,1.60
2018-01-15T03:53:54.386Z,1.70
2018-01-15T03:56:23.061Z,1.70
2018-01-15T03:58:51.320Z,1.70
2018-01-15T04:01:20.333Z,1.60
2018-01-15T04:03:49.081Z,1.60
2018-01-15T04:06:17.347Z,1.70
2018-01-15T04:08:45.558Z,1.70
2018-01-15T04:11:14.595Z,1.80
2018-01-15T04:13:42.830Z,1.80
2018-01-15T04:16:11.843Z,1.80
2018-01-15T04:18:40.113Z,1.80
2018-01-15T04:21:08.465Z,1.90
2018-01-15T04:23:36.656Z,1.90
2018-01-15T04:26:05.698Z,1.90
2018-01-15T04:28:33.981Z,1.90
2018-01-15T04:31:02.621Z,2.00
2018-01-15T04:33:31.900Z,2.00
2018-01-15T04:36:00.403Z,2.00
2018-01-15T04:38:29.630Z,2.10
2018-01-15T04:40:57.864Z,2.10
2018-01-15T04:43:26.903Z,2.20
2018-01-15T04:45:55.130Z,2.20
2018-01-15T04:48:23.358Z,2.20
2018-01-15T04:50:51.652Z,2.20
2018-01-15T04:53:19.890Z,2.20
2018-01-15T04:55:48.893Z,2.20
2018-01-15T04:58:17.165Z,2.20
2018-01-15T05:00:45.410Z,2.20
2018-01-15T05:03:14.472Z,2.20
2018-01-15T05:05:43.731Z,2.20
2018-01-15T05:08:12.732Z,2.30
2018-01-15T05:10:41.008Z,2.30
2018-01-15T05:13:09.304Z,2.30
2018-01-15T05:15:37.537Z,2.40
2018-01-15T05:18:05.831Z,2.40
2018-01-15T05:20:34.871Z,2.40
2018-01-15T05:23:03.741Z,2.40
2018-01-15T05:25:32.020Z,2.50
2018-01-15T05:28:01.494Z,2.40
2018-01-15T05:30:30.494Z,2.40
2018-01-15T05:32:59.560Z,2.40
2018-01-15T05:35:29.309Z,2.30
2018-01-15T05:37:59.265Z,2.30
2018-01-15T05:40:27.504Z,2.30
2018-01-15T05:42:55.773Z,2.30
2018-01-15T05:45:24.794Z,2.30
2018-01-15T05:47:53.131Z,2.30
2018-01-15T05:50:21.378Z,2.30
2018-01-15T05:52:49.643Z,2.40
2018-01-15T05:55:19.061Z,2.40
2018-01-15T05:57:48.034Z,2.40
2018-01-15T06:00:16.786Z,2.40
2018-01-15T06:02:45.821Z,2.40
2018-01-15T06:05:14.579Z,2.40
2018-01-15T06:07:43.562Z,2.40
2018-01-15T06:10:12.629Z,2.40
2018-01-15T06:12:40.901Z,2.40
2018-01-15T06:15:09.324Z,2.40
2018-01-15T06:17:38.399Z,2.60
2018-01-15T06:20:07.442Z,2.70
2018-01-15T06:22:36.314Z,2.60
2018-01-15T06:25:05.344Z,2.70
2018-01-15T06:27:33.625Z,2.70
2018-01-15T06:30:01.897Z,2.70
2018-01-15T06:32:30.170Z,2.80
2018-01-15T06:34:58.445Z,2.80
2018-01-15T06:37:26.723Z,3.10
2018-01-15T06:39:55.198Z,3.20
2018-01-15T06:42:23.466Z,3.30
2018-01-15T06:44:52.143Z,3.50
2018-01-15T06:47:21.195Z,3.70
2018-01-15T06:49:49.417Z,3.70
2018-01-15T06:52:18.489Z,3.90
2018-01-15T06:54:47.743Z,3.80
2018-01-15T06:57:16.028Z,3.90
2018-01-15T06:59:44.249Z,4.00
2018-01-15T07:02:13.276Z,4.00
2018-01-15T07:04:41.548Z,4.00
2018-01-15T07:07:09.796Z,4.10
2018-01-15T07:09:39.354Z,4.10
2018-01-15T07:12:07.610Z,4.10
2018-01-15T07:14:36.616Z,4.20
2018-01-15T07:17:05.753Z,4.20
2018-01-15T07:19:34.017Z,4.20
2018-01-15T07:22:02.274Z,4.20
2018-01-15T07:24:31.059Z,4.30
2018-01-15T07:26:59.307Z,4.30
2018-01-15T07:29:28.332Z,4.40
2018-01-15T07:31:56.653Z,4.40
2018-01-15T07:34:24.884Z,4.50
2018-01-15T07:36:53.153Z,4.60
2018-01-15T07:39:22.138Z,4.60
2018-01-15T07:41:50.474Z,4.60
2018-01-15T07:44:18.726Z,4.60
2018-01-15T07:46:46.993Z,4.60
2018-01-15T07:49:15.242Z,4.70
2018-01-15T07:51:44.246Z,4.70
2018-01-15T07:54:13.262Z,4.70
2018-01-15T07:56:41.494Z,4.70
2018-01-15T07:59:10.532Z,4.70
2018-01-15T08:01:38.792Z,4.70
2018-01-15T08:04:08.612Z,4.70
2018-01-15T08:06:36.880Z,4.70
2018-01-15T08:09:05.890Z,4.80
2018-01-15T08:11:34.139Z,4.70
2018-01-15T08:14:03.130Z,4.80
2018-01-15T08:16:32.157Z,4.80
2018-01-15T08:19:00.400Z,4.80
2018-01-15T08:21:28.769Z,4.80
2018-01-15T08:23:57.859Z,4.90
2018-01-15T08:26:26.086Z,4.90
2018-01-15T08:28:54.325Z,4.90
2018-01-15T08:31:22.582Z,4.90
2018-01-15T08:33:51.691Z,5.00
2018-01-15T08:36:19.946Z,5.00
2018-01-15T08:38:48.183Z,5.00
2018-01-15T08:41:16.417Z,5.00
2018-01-15T08:43:44.671Z,5.10
2018-01-15T08:46:12.932Z,5.10
2018-01-15T08:48:41.181Z,5.30
2018-01-15T08:51:10.198Z,5.20
2018-01-15T08:53:38.450Z,5.20
2018-01-15T08:56:06.709Z,5.30
2018-01-15T08:58:35.750Z,5.30
2018-01-15T09:01:04.036Z,5.20
2018-01-15T09:03:32.293Z,5.30
2018-01-15T09:06:00.605Z,5.30
2018-01-15T09:08:28.855Z,5.30
2018-01-15T09:10:57.129Z,5.40
2018-01-15T09:13:25.377Z,5.40
2018-01-15T09:15:54.393Z,5.40
2018-01-15T09:18:23.419Z,5.50
2018-01-15T09:20:52.454Z,5.50
2018-01-15T09:23:20.708Z,5.50
2018-01-15T09:25:48.969Z,5.50
2018-01-15T09:28:18.030Z,5.50
2018-01-15T09:30:46.289Z,5.50
2018-01-15T09:33:14.545Z,5.60
2018-01-15T09:35:44.311Z,5.60
2018-01-15T09:38:12.791Z,5.60
2018-01-15T09:40:41.752Z,5.70
2018-01-15T09:43:10.796Z,5.70
2018-01-15T09:45:39.038Z,5.70
2018-01-15T09:48:07.286Z,5.70
2018-01-15T09:50:35.549Z,5.70
2018-01-15T09:53:05.317Z,5.70
2018-01-15T09:55:33.577Z,5.80
2018-01-15T09:58:02.566Z,5.90
2018-01-15T10:00:31.595Z,5.90
2018-01-15T10:02:59.917Z,5.90
2018-01-15T10:05:28.146Z,5.90
2018-01-15T10:07:56.418Z,5.90
2018-01-15T10:10:24.654Z,5.90
2018-01-15T10:12:53.712Z,5.90
2018-01-15T10:15:22.007Z,5.90
2018-01-15T10:17:50.297Z,6.00
2018-01-15T10:20:18.574Z,6.10
2018-01-15T10:22:46.874Z,6.10
2018-01-15T10:25:16.710Z,6.10
2018-01-15T10:27:45.862Z,6.10
2018-01-15T10:30:14.103Z,6.20
2018-01-15T10:32:42.385Z,6.10
2018-01-15T10:35:10.679Z,6.20
2018-01-15T10:37:38.909Z,6.20
2018-01-15T10:40:07.184Z,6.20
2018-01-15T10:42:35.462Z,6.30
2018-01-15T10:45:04.490Z,6.40
2018-01-15T10:47:32.731Z,6.40
2018-01-15T10:50:01.727Z,6.50
2018-01-15T10:52:29.982Z,6.50
2018-01-15T10:54:59.053Z,6.50
2018-01-15T10:57:27.268Z,6.40
2018-01-15T10:59:56.923Z,6.40
2018-01-15T11:02:25.176Z,6.40
2018-01-15T11:04:53.414Z,6.40
2018-01-15T11:07:21.693Z,6.50
2018-01-15T11:09:49.943Z,6.40
2018-01-15T11:12:18.197Z,6.40
2018-01-15T11:14:46.473Z,6.40
2018-01-15T11:17:16.761Z,6.50
2018-01-15T11:19:46.660Z,6.50
2018-01-15T11:22:14.900Z,6.40
2018-01-15T11:24:43.174Z,6.40
2018-01-15T11:27:11.466Z,6.50
2018-01-15T11:29:39.761Z,6.40
2018-01-15T11:32:07.991Z,6.40
2018-01-15T11:34:36.206Z,6.50
2018-01-15T11:37:04.474Z,6.50
2018-01-15T11:39:32.719Z,6.50
2018-01-15T11:42:01.029Z,6.50
2018-01-15T11:44:29.267Z,6.50
2018-01-15T11:46:58.176Z,6.50
2018-01-15T11:49:26.426Z,6.50
2018-01-15T11:51:55.436Z,6.40
2018-01-15T11:54:23.697Z,6.40
2018-01-15T11:56:53.238Z,6.40
2018-01-15T11:59:21.510Z,6.40
2018-01-15T12:01:50.691Z,6.30
2018-01-15T12:04:19.707Z,6.30
2018-01-15T12:06:47.953Z,6.30
2018-01-15T12:09:16.287Z,6.40
2018-01-15T12:11:44.482Z,6.40
2018-01-15T12:14:12.773Z,6.30
2018-01-15T12:16:41.038Z,6.30
2018-01-15T12:19:09.272Z,6.30
2018-01-15T12:21:37.558Z,6.30
2018-01-15T12:24:05.813Z,6.20
2018-01-15T12:26:34.073Z,6.30
2018-01-15T12:29:03.209Z,6.30
2018-01-15T12:31:31.473Z,6.30
2018-01-15T12:33:59.702Z,6.20
2018-01-15T12:36:28.767Z,6.20
2018-01-15T12:38:57.029Z,6.20
2018-01-15T12:41:25.654Z,6.20
2018-01-15T12:43:53.886Z,6.20
2018-01-15T12:46:22.116Z,6.20
2018-01-15T12:48:51.162Z,6.10
2018-01-15T12:51:19.413Z,6.10
2018-01-15T12:53:48.406Z,6.20
2018-01-15T12:56:16.710Z,6.20
2018-01-15T12:58:46.579Z,6.20
2018-01-15T13:01:15.896Z,6.20
2018-01-15T13:03:44.146Z,6.20
2018-01-15T13:06:12.405Z,6.10
2018-01-15T13:09:00.372Z,6.10
2018-01-15T13:11:29.419Z,6.10
2018-01-15T13:13:57.723Z,6.10
2018-01-15T13:16:25.959Z,6.10
2018-01-15T13:18:54.222Z,6.10
2018-01-15T13:21:23.245Z,6.20
2018-01-15T13:23:51.540Z,6.10
2018-01-15T13:26:19.821Z,6.10
2018-01-15T13:28:49.587Z,6.10
2018-01-15T13:31:18.441Z,6.10
2018-01-15T13:33:48.213Z,6.20
2018-01-15T13:36:16.483Z,6.20
2018-01-15T13:38:44.761Z,6.10
2018-01-15T13:41:13.100Z,6.20
2018-01-15T13:43:42.901Z,6.10
2018-01-15T13:46:11.168Z,6.10
2018-01-15T13:48:39.455Z,6.10
2018-01-15T13:51:07.754Z,6.10
2018-01-15T13:53:36.777Z,6.00
2018-01-15T13:56:05.033Z,6.00
2018-01-15T13:58:33.403Z,6.00
2018-01-15T14:01:01.622Z,6.10
2018-01-15T14:03:29.953Z,6.10
2018-01-15T14:05:58.207Z,6.20
2018-01-15T14:08:26.513Z,6.20
2018-01-15T14:10:54.774Z,6.20
2018-01-15T14:13:23.005Z,6.20
2018-01-15T14:15:51.251Z,6.20
2018-01-15T14:18:20.287Z,6.20
2018-01-15T14:20:48.569Z,6.20
2018-01-15T14:23:16.850Z,6.20
2018-01-15T14:25:45.115Z,6.20
2018-01-15T14:28:13.743Z,6.10
2018-01-15T14:30:42.022Z,6.10
2018-01-15T14:33:10.474Z,6.10
2018-01-15T14:35:38.754Z,6.00
2018-01-15T14:38:07.027Z,6.10
2018-01-15T14:40:35.306Z,6.00
2018-01-15T14:43:03.635Z,6.00
2018-01-15T14:45:32.586Z,5.90
2018-01-15T14:48:00.866Z,5.80
2018-01-15T14:50:29.099Z,5.80
2018-01-15T14:52:57.383Z,5.70
2018-01-15T14:55:27.198Z,5.60
2018-01-15T14:57:55.489Z,5.60
2018-01-15T15:00:23.770Z,5.50
2018-01-15T15:02:52.057Z,5.40
2018-01-15T15:05:21.091Z,5.40
2018-01-15T15:07:50.133Z,5.30
2018-01-15T15:10:18.557Z,5.30
2018-01-15T15:12:46.799Z,5.30
2018-01-15T15:15:15.019Z,5.30
2018-01-15T15:17:44.075Z,5.10
2018-01-15T15:20:12.312Z,5.10
2018-01-15T15:22:40.649Z,5.10
2018-01-15T15:25:08.937Z,5.10
2018-01-15T15:27:37.424Z,5.00
2018-01-15T15:30:07.214Z,5.00
2018-01-15T15:32:36.209Z,5.00
2018-01-15T15:35:04.501Z,5.00
2018-01-15T15:37:32.736Z,5.00
2018-01-15T15:40:01.190Z,5.00
2018-01-15T15:42:30.217Z,5.00
2018-01-15T15:44:58.506Z,5.00
2018-01-15T15:47:26.734Z,4.90
2018-01-15T15:49:55.789Z,4.90
2018-01-15T15:52:24.049Z,4.80
2018-01-15T15:54:52.314Z,4.90
2018-01-15T15:57:20.587Z,4.80
2018-01-15T15:59:48.845Z,4.90
2018-01-15T16:02:17.882Z,4.90
2018-01-15T16:04:47.216Z,4.90
2018-01-15T16:07:16.260Z,4.90
2018-01-15T16:09:44.528Z,4.80
2018-01-15T16:12:12.787Z,4.90
2018-01-15T16:14:41.820Z,5.00
2018-01-15T16:17:10.968Z,5.00
2018-01-15T16:19:40.028Z,5.10
2018-01-15T16:22:20.367Z,5.00
2018-01-15T16:24:48.641Z,5.00
2018-01-15T16:27:16.961Z,5.00
2018-01-15T16:29:45.240Z,5.00
2018-01-15T16:32:13.510Z,5.00
2018-01-15T16:34:41.769Z,5.00
2018-01-15T16:37:10.038Z,5.00
2018-01-15T16:39:38.317Z,5.00
2018-01-15T16:42:06.627Z,5.00
2018-01-15T16:44:34.890Z,5.00
2018-01-15T16:47:03.178Z,5.00
2018-01-15T16:49:32.109Z,5.00
2018-01-15T16:52:01.135Z,5.00
2018-01-15T16:54:30.329Z,5.00
2018-01-15T16:56:58.633Z,5.00
2018-01-15T16:59:26.851Z,5.10
2018-01-15T17:01:55.925Z,5.10
2018-01-15T17:04:24.689Z,5.00
2018-01-15T17:06:52.941Z,5.10
2018-01-15T17:09:22.501Z,5.20
2018-01-15T17:11:50.939Z,5.10
2018-01-15T17:14:19.165Z,5.10
2018-01-15T17:16:49.702Z,5.10
2018-01-15T17:19:17.967Z,5.00
2018-01-15T17:21:46.195Z,5.00
2018-01-15T17:24:14.454Z,5.00
2018-01-15T17:26:42.705Z,5.00
2018-01-15T17:29:11.407Z,5.00
2018-01-15T17:31:39.653Z,5.00
2018-01-15T17:34:08.008Z,5.00
2018-01-15T17:36:36.513Z,5.10
2018-01-15T17:39:04.781Z,5.10
2018-01-15T17:41:33.066Z,5.00
2018-01-15T17:44:01.284Z,5.10
2018-01-15T17:46:30.366Z,5.10
2018-01-15T17:48:58.675Z,5.10
2018-01-15T17:51:27.690Z,5.10
2018-01-15T17:53:55.957Z,5.00
2018-01-15T17:56:24.233Z,5.10
2018-01-15T17:58:52.498Z,5.10
2018-01-15T18:01:20.762Z,5.10
2018-01-15T18:03:49.815Z,5.00
2018-01-15T18:06:18.037Z,5.00
2018-01-15T18:08:47.185Z,4.90
2018-01-15T18:11:15.477Z,4.90
2018-01-15T18:13:44.603Z,4.90
2018-01-15T18:16:13.631Z,4.80
2018-01-15T18:18:41.903Z,4.80
2018-01-15T18:21:10.963Z,4.70
2018-01-15T18:23:39.999Z,4.70
2018-01-15T18:26:09.199Z,4.60
2018-01-15T18:28:37.473Z,4.70
2018-01-15T18:31:06.479Z,4.60
2018-01-15T18:33:34.754Z,4.60
2018-01-15T18:36:03.013Z,4.60
2018-01-15T18:38:32.060Z,4.50
2018-01-15T18:41:00.325Z,4.50
2018-01-15T18:43:28.589Z,4.50
2018-01-15T18:45:56.820Z,4.60
2018-01-15T18:48:25.110Z,4.60
2018-01-15T18:50:53.406Z,4.60
2018-01-15T18:53:21.679Z,4.60
2018-01-15T18:55:49.918Z,4.70
2018-01-15T18:58:19.011Z,4.70
2018-01-15T19:00:48.059Z,4.70
2018-01-15T19:03:16.331Z,4.70
2018-01-15T19:05:44.574Z,4.70
2018-01-15T19:08:15.271Z,4.80
2018-01-15T19:10:43.537Z,4.80
2018-01-15T19:13:11.820Z,4.80
2018-01-15T19:15:40.050Z,4.80
2018-01-15T19:18:08.322Z,4.80
2018-01-15T19:20:37.597Z,4.80
2018-01-15T19:23:06.474Z,4.80
2018-01-15T19:25:34.914Z,4.80
2018-01-15T19:28:03.507Z,4.80
2018-01-15T19:30:32.648Z,4.90
2018-01-15T19:33:00.919Z,4.80
2018-01-15T19:35:35.264Z,4.90
2018-01-15T19:38:03.574Z,4.90
2018-01-15T19:40:32.595Z,5.10
2018-01-15T19:43:03.545Z,5.00
2018-01-15T19:48:40.727Z,5.10
2018-01-15T19:51:14.799Z,5.10
2018-01-15T19:53:48.745Z,5.10
2018-01-15T19:56:22.716Z,5.10
2018-01-15T19:58:56.693Z,5.10
2018-01-15T20:01:30.798Z,5.10
2018-01-15T20:04:04.829Z,5.20
2018-01-15T20:09:58.497Z,5.20
2018-01-15T20:12:26.840Z,5.10
2018-01-15T20:14:55.929Z,5.20
2018-01-15T20:17:24.953Z,5.20
2018-01-15T20:19:53.987Z,5.20
2018-01-15T20:22:22.269Z,5.20
2018-01-15T20:24:50.572Z,5.20
2018-01-15T20:27:18.967Z,5.30
2018-01-15T20:29:48.353Z,5.30
2018-01-15T20:32:16.862Z,5.30
2018-01-15T20:34:45.871Z,5.30
2018-01-15T20:37:14.176Z,5.30
2018-01-15T20:39:43.280Z,5.30
2018-01-15T20:42:12.613Z,5.30
2018-01-15T20:44:52.538Z,5.30
2018-01-15T20:47:23.128Z,5.30
2018-01-15T20:49:51.537Z,5.30
2018-01-15T20:52:21.019Z,5.30
2018-01-15T20:54:50.261Z,5.30
2018-01-15T20:57:20.320Z,5.30
2018-01-15T20:59:50.572Z,5.30
2018-01-15T21:02:19.931Z,5.20
2018-01-15T21:04:48.201Z,5.20
2018-01-15T21:07:17.228Z,5.10
2018-01-15T21:09:45.518Z,5.10
2018-01-15T21:12:13.806Z,5.20
2018-01-15T21:14:42.318Z,5.10
2018-01-15T21:17:10.633Z,5.10
2018-01-15T21:19:39.087Z,5.10
2018-01-15T21:22:07.359Z,5.10
2018-01-15T21:24:35.621Z,5.10
2018-01-15T21:27:03.921Z,5.00
2018-01-15T21:29:32.218Z,5.00
2018-01-15T21:32:01.287Z,5.00
2018-01-15T21:34:29.525Z,5.00
2018-01-15T21:36:57.799Z,5.00
2018-01-15T21:39:26.050Z,5.00
2018-01-15T21:41:54.308Z,5.00
2018-01-15T21:44:24.091Z,5.00
2018-01-15T21:46:52.387Z,5.00
2018-01-15T21:49:20.645Z,5.00
2018-01-15T21:51:48.927Z,5.10
2018-01-15T21:54:17.159Z,5.00
2018-01-15T21:56:45.414Z,5.10
2018-01-15T21:59:14.465Z,5.00
2018-01-15T22:01:42.780Z,5.00
2018-01-15T22:04:11.036Z,5.00
2018-01-15T22:06:39.298Z,5.00
2018-01-15T22:09:07.549Z,5.10
2018-01-15T22:11:36.563Z,5.00
2018-01-15T22:14:04.854Z,5.00
2018-01-15T22:16:33.119Z,5.00
2018-01-15T22:19:01.406Z,5.00
2018-01-15T22:21:29.647Z,4.90
2018-01-15T22:23:58.676Z,4.90
2018-01-15T22:26:26.920Z,4.90
2018-01-15T22:28:55.947Z,4.90
2018-01-15T22:31:24.246Z,4.90
2018-01-15T22:33:52.519Z,4.90
2018-01-15T22:36:20.800Z,4.90
2018-01-15T22:38:49.038Z,4.90
2018-01-15T22:41:17.299Z,4.90
2018-01-15T22:43:45.547Z,4.90
2018-01-15T22:46:13.810Z,4.80
2018-01-15T22:48:42.067Z,4.90
2018-01-15T22:51:11.242Z,4.90
2018-01-15T22:53:39.519Z,4.80
2018-01-15T22:56:07.832Z,4.90
2018-01-15T22:58:36.079Z,4.80
2018-01-15T23:01:04.347Z,4.90
2018-01-15T23:03:32.669Z,4.90
2018-01-15T23:06:00.921Z,4.90
2018-01-15T23:08:29.179Z,4.90
2018-01-15T23:10:57.408Z,4.90
2018-01-15T23:13:25.654Z,4.90
2018-01-15T23:15:53.903Z,5.00
2018-01-15T23:18:22.897Z,5.00
2018-01-15T23:20:51.131Z,5.00
2018-01-15T23:23:19.391Z,5.00
2018-01-15T23:25:47.652Z,5.00
2018-01-15T23:28:15.884Z,5.00
2018-01-15T23:30:44.883Z,5.00
2018-01-15T23:33:13.877Z,5.10
2018-01-15T23:35:42.918Z,5.10
2018-01-15T23:38:11.161Z,5.10
2018-01-15T23:40:40.200Z,5.20
2018-01-15T23:43:08.422Z,5.30
2018-01-15T23:45:37.433Z,5.40
2018-01-15T23:48:05.832Z,5.40
2018-01-15T23:50:34.363Z,5.50
2018-01-15T23:53:02.553Z,5.50
2018-01-15T23:55:31.563Z,5.60
2018-01-15T23:57:59.821Z,5.50
